DAUL/LOO METAR and TAF weather

Enter ICAO airport designator
Station Type Date Time Source
DAUL METAR 2020/02/19 14:00 UTC NOAA

DAUL 191400Z 36006KT CAVOK 21/06 Q1025


Station Type Date Time Source
DAUL Decoded METAR 2020/02/19 14:00 UTC NOAA

Laghouat, Algeria (DAUL) 33-46N 002-56E 765M
Feb 19, 2020 - 09:00 AM EST / 2020.02.19 1400 UTC
Wind: from the N (360 degrees) at 7 MPH (6 KT):0
Visibility: greater than 7 mile(s):0
Temperature: 69 F (21 C)
Dew Point: 42 F (6 C)
Relative Humidity: 37%
Pressure (altimeter): 30.27 in. Hg (1025 hPa)
ob: DAUL 191400Z 36006KT CAVOK 21/06 Q1025
cycle: 14

Station Type Date Time Source
DAUL TAF 2017/11/09 18:03 UTC NOAA

TAF DAUL 091700Z 0918/1009 02012KT 9999 SCT030 SCT100 PROB40
TEMPO 0918/0924 35020G30KT 4000 -TSRA FEW030CB

Example: see airport list